createdAt,value
2022-12-24T00:01:03.925Z,975
2022-12-24T00:02:11.143Z,975
2022-12-24T00:03:18.356Z,975
2022-12-24T00:04:25.136Z,975
2022-12-24T00:05:32.288Z,975
2022-12-24T00:06:39.391Z,975
2022-12-24T00:07:46.570Z,975
2022-12-24T00:08:53.830Z,975
2022-12-24T00:10:00.962Z,974
2022-12-24T00:11:08.231Z,974
2022-12-24T00:12:15.267Z,974
2022-12-24T00:13:22.331Z,974
2022-12-24T00:14:29.234Z,974
2022-12-24T00:15:36.346Z,974
2022-12-24T00:16:43.682Z,974
2022-12-24T00:17:50.742Z,974
2022-12-24T00:18:57.932Z,974
2022-12-24T00:20:05.038Z,975
2022-12-24T00:21:12.220Z,975
2022-12-24T00:22:19.341Z,974
2022-12-24T00:23:26.201Z,974
2022-12-24T00:24:33.442Z,974
2022-12-24T00:25:40.539Z,975
2022-12-24T00:26:47.619Z,975
2022-12-24T00:27:54.796Z,975
2022-12-24T00:29:01.984Z,975
2022-12-24T00:30:09.265Z,975
2022-12-24T00:31:16.487Z,974
2022-12-24T00:32:23.442Z,974
2022-12-24T00:33:30.764Z,974
2022-12-24T00:34:37.961Z,974
2022-12-24T00:35:45.099Z,974
2022-12-24T00:36:52.354Z,974
2022-12-24T00:37:59.600Z,974
2022-12-24T00:39:06.559Z,974
2022-12-24T00:40:13.828Z,974
2022-12-24T00:41:20.890Z,974
2022-12-24T00:42:30.862Z,974
2022-12-24T00:43:37.984Z,974
2022-12-24T00:44:45.246Z,974
2022-12-24T00:45:52.410Z,974
2022-12-24T00:46:59.469Z,974
2022-12-24T00:48:06.702Z,974
2022-12-24T00:49:13.808Z,974
2022-12-24T00:50:21.087Z,974
2022-12-24T00:51:28.488Z,974
2022-12-24T00:52:35.497Z,974
2022-12-24T00:53:42.681Z,974
2022-12-24T00:54:49.794Z,975
2022-12-24T00:55:57.049Z,975
2022-12-24T00:57:04.305Z,975
2022-12-24T00:58:11.391Z,975
2022-12-24T00:59:18.467Z,975
2022-12-24T01:00:25.358Z,975
2022-12-24T01:01:32.711Z,975
2022-12-24T01:02:39.834Z,975
2022-12-24T01:03:47.072Z,975
2022-12-24T01:04:54.064Z,975
2022-12-24T01:06:06.487Z,975
2022-12-24T01:07:19.050Z,975
2022-12-24T01:08:25.927Z,975
2022-12-24T01:09:33.127Z,975
2022-12-24T01:10:40.215Z,975
2022-12-24T01:11:47.403Z,975
2022-12-24T01:12:54.471Z,975
2022-12-24T01:14:01.737Z,975
2022-12-24T01:15:08.931Z,975
2022-12-24T01:16:16.125Z,975
2022-12-24T01:17:23.154Z,975
2022-12-24T01:18:30.010Z,975
2022-12-24T01:19:37.177Z,975
2022-12-24T01:20:44.409Z,975
2022-12-24T01:21:51.547Z,975
2022-12-24T01:22:58.647Z,975
2022-12-24T01:24:05.904Z,975
2022-12-24T01:25:13.017Z,975
2022-12-24T01:26:20.106Z,975
2022-12-24T01:27:27.164Z,975
2022-12-24T01:28:34.272Z,975
2022-12-24T01:29:41.360Z,975
2022-12-24T01:30:48.467Z,975
2022-12-24T01:31:55.693Z,975
2022-12-24T01:33:02.782Z,975
2022-12-24T01:34:10.010Z,975
2022-12-24T01:35:17.150Z,975
2022-12-24T01:36:23.937Z,975
2022-12-24T01:37:31.085Z,974
2022-12-24T01:38:38.283Z,974
2022-12-24T01:39:45.426Z,974
2022-12-24T01:40:52.708Z,974
2022-12-24T01:42:04.923Z,974
2022-12-24T01:43:22.258Z,974
2022-12-24T01:44:35.449Z,974
2022-12-24T01:45:36.645Z,974
2022-12-24T01:46:54.483Z,974
2022-12-24T01:48:11.643Z,974
2022-12-24T01:49:26.682Z,974
2022-12-24T01:50:33.904Z,974
2022-12-24T01:51:41.001Z,974
2022-12-24T01:52:48.207Z,974
2022-12-24T01:53:55.310Z,974
2022-12-24T01:55:02.511Z,974
2022-12-24T01:56:09.813Z,974
2022-12-24T01:57:16.898Z,974
2022-12-24T01:58:29.391Z,974
2022-12-24T01:59:36.433Z,974
2022-12-24T02:00:43.601Z,974
2022-12-24T02:01:50.890Z,974
2022-12-24T02:02:58.074Z,974
2022-12-24T02:04:05.020Z,974
2022-12-24T02:05:12.322Z,974
2022-12-24T02:06:29.794Z,974
2022-12-24T02:07:36.956Z,974
2022-12-24T02:08:44.167Z,974
2022-12-24T02:09:51.373Z,974
2022-12-24T02:10:58.508Z,974
2022-12-24T02:12:05.776Z,974
2022-12-24T02:13:12.661Z,974
2022-12-24T02:14:19.835Z,974
2022-12-24T02:15:26.753Z,974
2022-12-24T02:16:34.143Z,974
2022-12-24T02:17:48.674Z,974
2022-12-24T02:19:01.925Z,974
2022-12-24T02:20:14.314Z,974
2022-12-24T02:21:31.733Z,974
2022-12-24T02:22:44.017Z,974
2022-12-24T02:24:01.504Z,974
2022-12-24T02:25:16.292Z,974
2022-12-24T02:26:30.824Z,974
2022-12-24T02:27:43.135Z,974
2022-12-24T02:28:52.774Z,975
2022-12-24T02:30:10.145Z,975
2022-12-24T02:31:22.607Z,975
2022-12-24T02:32:32.438Z,975
2022-12-24T02:33:45.202Z,975
2022-12-24T02:34:59.965Z,975
2022-12-24T02:36:10.200Z,975
2022-12-24T02:37:17.320Z,975
2022-12-24T02:38:26.722Z,975
2022-12-24T02:39:36.446Z,974
2022-12-24T02:40:49.213Z,974
2022-12-24T02:41:59.438Z,975
2022-12-24T02:43:11.943Z,974
2022-12-24T02:44:18.968Z,974
2022-12-24T02:45:26.208Z,974
2022-12-24T02:46:33.445Z,975
2022-12-24T02:47:40.580Z,975
2022-12-24T02:48:47.715Z,975
2022-12-24T02:49:55.015Z,975
2022-12-24T02:51:02.064Z,975
2022-12-24T02:52:09.202Z,975
2022-12-24T02:53:26.723Z,975
2022-12-24T02:54:34.175Z,975
2022-12-24T02:55:41.221Z,975
2022-12-24T02:56:48.344Z,975
2022-12-24T02:58:01.101Z,975
2022-12-24T02:59:13.409Z,975
2022-12-24T03:00:30.924Z,975
2022-12-24T03:01:48.427Z,975
2022-12-24T03:03:05.647Z,975
2022-12-24T03:04:22.964Z,975
2022-12-24T03:05:35.369Z,975
2022-12-24T03:06:48.185Z,975
2022-12-24T03:08:02.989Z,975
2022-12-24T03:09:10.289Z,975
2022-12-24T03:10:27.697Z,975
2022-12-24T03:11:40.480Z,975
2022-12-24T03:12:47.673Z,975
2022-12-24T03:13:54.804Z,975
2022-12-24T03:15:02.069Z,975
2022-12-24T03:16:09.747Z,975
2022-12-24T03:17:16.909Z,975
2022-12-24T03:18:24.012Z,975
2022-12-24T03:19:30.793Z,975
2022-12-24T03:20:38.047Z,975
2022-12-24T03:21:48.240Z,975
2022-12-24T03:22:55.387Z,975
2022-12-24T03:24:02.592Z,975
2022-12-24T03:25:09.726Z,975
2022-12-24T03:26:16.937Z,975
2022-12-24T03:27:24.052Z,975
2022-12-24T03:28:30.940Z,975
2022-12-24T03:29:38.093Z,975
2022-12-24T03:30:45.318Z,975
2022-12-24T03:31:52.603Z,975
2022-12-24T03:32:59.553Z,975
2022-12-24T03:34:06.701Z,975
2022-12-24T03:35:13.892Z,975
2022-12-24T03:36:21.054Z,975
2022-12-24T03:37:28.012Z,975
2022-12-24T03:38:34.996Z,975
2022-12-24T03:39:42.236Z,975
2022-12-24T03:40:49.386Z,975
2022-12-24T03:41:56.528Z,975
2022-12-24T03:43:03.709Z,975
2022-12-24T03:44:10.954Z,975
2022-12-24T03:45:18.080Z,975
2022-12-24T03:46:24.902Z,975
2022-12-24T03:47:32.010Z,975
2022-12-24T03:48:39.172Z,975
2022-12-24T03:49:46.388Z,975
2022-12-24T03:50:53.637Z,975
2022-12-24T03:52:00.617Z,975
2022-12-24T03:53:07.824Z,975
2022-12-24T03:54:14.989Z,975
2022-12-24T03:55:22.080Z,975
2022-12-24T03:56:28.959Z,975
2022-12-24T03:57:36.024Z,975
2022-12-24T03:58:43.252Z,975
2022-12-24T03:59:50.404Z,975
2022-12-24T04:00:57.644Z,975
2022-12-24T04:02:04.953Z,975
2022-12-24T04:03:11.967Z,975
2022-12-24T04:04:19.081Z,975
2022-12-24T04:05:25.908Z,975
2022-12-24T04:06:33.054Z,975
2022-12-24T04:07:40.221Z,975
2022-12-24T04:08:47.387Z,975
2022-12-24T04:09:54.620Z,975
2022-12-24T04:11:06.281Z,975
2022-12-24T04:12:08.937Z,975
2022-12-24T04:13:16.062Z,975
2022-12-24T04:14:23.212Z,975
2022-12-24T04:15:30.148Z,975
2022-12-24T04:16:37.493Z,975
2022-12-24T04:17:44.388Z,975
2022-12-24T04:18:51.525Z,975
2022-12-24T04:19:58.892Z,975
2022-12-24T04:21:06.147Z,975
2022-12-24T04:22:13.212Z,975
2022-12-24T04:23:20.126Z,975
2022-12-24T04:24:26.960Z,975
2022-12-24T04:25:34.218Z,975
2022-12-24T04:26:41.316Z,975
2022-12-24T04:27:48.465Z,975
2022-12-24T04:28:55.744Z,975
2022-12-24T04:30:02.848Z,975
2022-12-24T04:31:10.572Z,975
2022-12-24T04:32:17.748Z,975
2022-12-24T04:33:24.584Z,975
2022-12-24T04:34:31.613Z,975
2022-12-24T04:35:38.850Z,975
2022-12-24T04:36:45.996Z,975
2022-12-24T04:37:53.114Z,975
2022-12-24T04:39:00.236Z,975
2022-12-24T04:40:07.477Z,975
2022-12-24T04:41:20.675Z,975
2022-12-24T04:42:21.897Z,975
2022-12-24T04:43:29.291Z,975
2022-12-24T04:44:36.305Z,975
2022-12-24T04:45:43.554Z,975
2022-12-24T04:46:50.578Z,975
2022-12-24T04:47:57.888Z,975
2022-12-24T04:49:04.955Z,975
2022-12-24T04:50:12.052Z,975
2022-12-24T04:51:19.269Z,975
2022-12-24T04:52:26.052Z,975
2022-12-24T04:53:33.223Z,975
2022-12-24T04:54:40.592Z,975
2022-12-24T04:55:47.544Z,975
2022-12-24T04:56:54.840Z,975
2022-12-24T04:58:01.833Z,975
2022-12-24T04:59:09.089Z,975
2022-12-24T05:00:16.281Z,975
2022-12-24T05:01:23.654Z,975
2022-12-24T05:02:31.033Z,975
2022-12-24T05:03:37.914Z,976
2022-12-24T05:04:45.212Z,975
2022-12-24T05:05:55.185Z,976
2022-12-24T05:06:59.440Z,976
2022-12-24T05:08:06.789Z,976
2022-12-24T05:09:13.818Z,976
2022-12-24T05:10:20.907Z,976
2022-12-24T05:11:27.778Z,976
2022-12-24T05:12:34.965Z,976
2022-12-24T05:13:46.464Z,976
2022-12-24T05:14:49.449Z,976
2022-12-24T05:15:56.503Z,976
2022-12-24T05:17:03.642Z,976
2022-12-24T05:18:10.975Z,976
2022-12-24T05:19:17.835Z,976
2022-12-24T05:20:24.719Z,976
2022-12-24T05:21:31.956Z,975
2022-12-24T05:22:39.181Z,976
2022-12-24T05:23:52.159Z,976
2022-12-24T05:25:04.092Z,976
2022-12-24T05:26:16.377Z,976
2022-12-24T05:27:31.599Z,976
2022-12-24T05:28:38.588Z,976
2022-12-24T05:29:45.680Z,976
2022-12-24T05:30:52.961Z,976
2022-12-24T05:32:00.100Z,976
2022-12-24T05:33:07.198Z,976
2022-12-24T05:34:14.366Z,976
2022-12-24T05:35:21.492Z,976
2022-12-24T05:36:28.353Z,976
2022-12-24T05:37:35.565Z,976
2022-12-24T05:38:42.745Z,976
2022-12-24T05:39:49.835Z,976
2022-12-24T05:40:56.977Z,976
2022-12-24T05:42:04.140Z,976
2022-12-24T05:43:11.277Z,976
2022-12-24T05:44:18.356Z,976
2022-12-24T05:45:25.387Z,976
2022-12-24T05:46:32.727Z,976
2022-12-24T05:47:43.153Z,976
2022-12-24T05:48:46.758Z,976
2022-12-24T05:49:54.859Z,976
2022-12-24T05:51:02.102Z,976
2022-12-24T05:52:09.363Z,976
2022-12-24T05:53:16.538Z,976
2022-12-24T05:54:23.444Z,976
2022-12-24T05:55:30.411Z,976
2022-12-24T05:56:37.465Z,976
2022-12-24T05:57:44.678Z,976
2022-12-24T05:58:51.814Z,976
2022-12-24T05:59:59.020Z,976
2022-12-24T06:01:06.192Z,976
2022-12-24T06:02:14.240Z,976
2022-12-24T06:03:21.382Z,976
2022-12-24T06:04:29.085Z,976
2022-12-24T06:05:35.440Z,976
2022-12-24T06:06:42.570Z,976
2022-12-24T06:07:49.728Z,976
2022-12-24T06:08:56.940Z,976
2022-12-24T06:10:04.072Z,976
2022-12-24T06:11:11.732Z,976
2022-12-24T06:12:19.234Z,976
2022-12-24T06:13:26.266Z,976
2022-12-24T06:14:33.386Z,976
2022-12-24T06:15:40.602Z,976
2022-12-24T06:16:47.722Z,976
2022-12-24T06:17:54.863Z,976
2022-12-24T06:19:02.069Z,976
2022-12-24T06:20:09.180Z,976
2022-12-24T06:21:16.280Z,976
2022-12-24T06:22:23.493Z,976
2022-12-24T06:23:30.343Z,976
2022-12-24T06:24:37.491Z,976
2022-12-24T06:25:44.800Z,976
2022-12-24T06:26:51.706Z,976
2022-12-24T06:27:58.946Z,976
2022-12-24T06:29:06.081Z,976
2022-12-24T06:30:13.151Z,976
2022-12-24T06:31:20.579Z,976
2022-12-24T06:32:27.774Z,976
2022-12-24T06:33:34.885Z,976
2022-12-24T06:34:42.046Z,976
2022-12-24T06:35:49.221Z,976
2022-12-24T06:36:56.320Z,976
2022-12-24T06:38:03.502Z,976
2022-12-24T06:39:10.749Z,976
2022-12-24T06:40:17.802Z,976
2022-12-24T06:41:24.604Z,976
2022-12-24T06:42:31.763Z,976
2022-12-24T06:43:38.980Z,976
2022-12-24T06:44:51.248Z,976
2022-12-24T06:45:58.420Z,976
2022-12-24T06:47:05.646Z,976
2022-12-24T06:48:12.694Z,976
2022-12-24T06:49:19.765Z,976
2022-12-24T06:50:26.566Z,976
2022-12-24T06:51:33.747Z,976
2022-12-24T06:52:40.955Z,976
2022-12-24T06:53:48.178Z,976
2022-12-24T06:54:55.307Z,976
2022-12-24T06:56:02.409Z,977
2022-12-24T06:57:09.579Z,977
2022-12-24T06:58:16.634Z,977
2022-12-24T06:59:23.846Z,977
2022-12-24T07:00:30.912Z,977
2022-12-24T07:01:38.011Z,977
2022-12-24T07:02:45.013Z,977
2022-12-24T07:03:52.134Z,977
2022-12-24T07:04:59.279Z,977
2022-12-24T07:06:06.512Z,977
2022-12-24T07:07:23.781Z,977
2022-12-24T07:08:30.640Z,977
2022-12-24T07:09:37.794Z,977
2022-12-24T07:10:48.994Z,977
2022-12-24T07:11:52.453Z,977
2022-12-24T07:12:59.264Z,977
2022-12-24T07:14:06.426Z,977
2022-12-24T07:15:13.579Z,977
2022-12-24T07:16:20.942Z,977
2022-12-24T07:17:27.949Z,977
2022-12-24T07:18:34.866Z,977
2022-12-24T07:19:41.983Z,977
2022-12-24T07:20:49.429Z,977
2022-12-24T07:21:56.243Z,977
2022-12-24T07:23:03.018Z,977
2022-12-24T07:24:10.207Z,977
2022-12-24T07:25:17.227Z,977
2022-12-24T07:26:24.436Z,977
2022-12-24T07:27:31.255Z,977
2022-12-24T07:28:38.391Z,977
2022-12-24T07:29:45.623Z,977
2022-12-24T07:30:52.795Z,977
2022-12-24T07:31:59.894Z,977
2022-12-24T07:33:07.055Z,977
2022-12-24T07:34:14.157Z,977
2022-12-24T07:35:21.348Z,977
2022-12-24T07:36:28.459Z,977
2022-12-24T07:37:35.584Z,977
2022-12-24T07:38:42.503Z,977
2022-12-24T07:39:49.770Z,977
2022-12-24T07:40:57.017Z,977
2022-12-24T07:42:04.090Z,977
2022-12-24T07:43:11.413Z,977
2022-12-24T07:44:19.099Z,977
2022-12-24T07:45:26.172Z,977
2022-12-24T07:46:33.322Z,977
2022-12-24T07:47:40.424Z,977
2022-12-24T07:48:47.719Z,977
2022-12-24T07:49:54.873Z,977
2022-12-24T07:51:01.954Z,977
2022-12-24T07:52:09.097Z,977
2022-12-24T07:53:16.287Z,977
2022-12-24T07:54:23.544Z,977
2022-12-24T07:55:30.810Z,977
2022-12-24T07:56:38.078Z,977
2022-12-24T07:57:45.120Z,977
2022-12-24T07:58:52.301Z,977
2022-12-24T07:59:59.388Z,977
2022-12-24T08:01:06.606Z,977
2022-12-24T08:02:18.039Z,977
2022-12-24T08:03:20.978Z,977
2022-12-24T08:04:27.821Z,977
2022-12-24T08:05:34.808Z,977
2022-12-24T08:06:41.969Z,977
2022-12-24T08:07:49.146Z,977
2022-12-24T08:08:56.328Z,977
2022-12-24T08:10:03.541Z,977
2022-12-24T08:11:11.145Z,977
2022-12-24T08:12:18.312Z,977
2022-12-24T08:13:25.196Z,977
2022-12-24T08:14:32.332Z,977
2022-12-24T08:15:39.755Z,977
2022-12-24T08:16:46.882Z,977
2022-12-24T08:17:53.775Z,977
2022-12-24T08:19:00.965Z,977
2022-12-24T08:20:08.053Z,977
2022-12-24T08:21:15.222Z,977
2022-12-24T08:22:22.658Z,977
2022-12-24T08:23:29.915Z,977
2022-12-24T08:24:36.939Z,977
2022-12-24T08:25:44.166Z,977
2022-12-24T08:26:51.342Z,977
2022-12-24T08:27:58.535Z,977
2022-12-24T08:29:05.677Z,977
2022-12-24T08:30:17.532Z,977
2022-12-24T08:31:19.970Z,977
2022-12-24T08:32:26.773Z,977
2022-12-24T08:33:33.871Z,977
2022-12-24T08:34:41.026Z,977
2022-12-24T08:35:48.303Z,977
2022-12-24T08:36:55.488Z,977
2022-12-24T08:38:02.535Z,977
2022-12-24T08:39:09.748Z,978
2022-12-24T08:40:16.946Z,978
2022-12-24T08:41:24.069Z,978
2022-12-24T08:42:31.011Z,978
2022-12-24T08:43:38.138Z,978
2022-12-24T08:44:45.256Z,978
2022-12-24T08:45:52.517Z,978
2022-12-24T08:46:59.585Z,978
2022-12-24T08:48:06.926Z,978
2022-12-24T08:49:13.865Z,978
2022-12-24T08:50:21.029Z,978
2022-12-24T08:51:27.853Z,978
2022-12-24T08:52:35.006Z,978
2022-12-24T08:53:42.220Z,978
2022-12-24T08:54:49.521Z,978
2022-12-24T08:55:57.170Z,978
2022-12-24T08:57:09.475Z,978
2022-12-24T08:58:16.539Z,978
2022-12-24T08:59:23.609Z,978
2022-12-24T09:00:30.538Z,978
2022-12-24T09:01:37.701Z,978
2022-12-24T09:02:44.956Z,978
2022-12-24T09:03:52.001Z,978
2022-12-24T09:04:59.201Z,978
2022-12-24T09:06:06.254Z,978
2022-12-24T09:07:13.402Z,978
2022-12-24T09:08:20.609Z,978
2022-12-24T09:09:30.383Z,978
2022-12-24T09:10:34.809Z,978
2022-12-24T09:11:41.822Z,978
2022-12-24T09:12:49.011Z,978
2022-12-24T09:13:56.134Z,978
2022-12-24T09:15:04.254Z,978
2022-12-24T09:16:10.815Z,978
2022-12-24T09:17:17.746Z,978
2022-12-24T09:18:24.855Z,978
2022-12-24T09:19:31.671Z,978
2022-12-24T09:20:42.776Z,978
2022-12-24T09:21:46.047Z,978
2022-12-24T09:22:53.159Z,978
2022-12-24T09:24:00.351Z,978
2022-12-24T09:25:07.493Z,978
2022-12-24T09:26:14.643Z,978
2022-12-24T09:27:24.319Z,978
2022-12-24T09:28:31.210Z,978
2022-12-24T09:29:38.477Z,978
2022-12-24T09:30:45.542Z,978
2022-12-24T09:32:03.068Z,978
2022-12-24T09:33:10.126Z,978
2022-12-24T09:34:17.306Z,978
2022-12-24T09:35:24.774Z,978
2022-12-24T09:36:31.823Z,978
2022-12-24T09:37:38.997Z,978
2022-12-24T09:38:46.206Z,978
2022-12-24T09:39:55.043Z,978
2022-12-24T09:41:07.039Z,978
2022-12-24T09:42:14.226Z,978
2022-12-24T09:43:31.843Z,978
2022-12-24T09:44:39.455Z,978
2022-12-24T09:45:54.877Z,978
2022-12-24T09:47:12.343Z,978
2022-12-24T09:48:29.789Z,978
2022-12-24T09:49:37.215Z,978
2022-12-24T09:50:45.041Z,978
2022-12-24T09:52:02.454Z,978
2022-12-24T09:53:09.627Z,978
2022-12-24T09:54:19.362Z,978
2022-12-24T09:55:28.826Z,978
2022-12-24T09:56:41.094Z,978
2022-12-24T09:57:49.129Z,978
2022-12-24T09:58:56.413Z,978
2022-12-24T10:00:03.680Z,978
2022-12-24T10:01:16.039Z,978
2022-12-24T10:02:23.219Z,978
2022-12-24T10:03:29.989Z,978
2022-12-24T10:04:37.246Z,978
2022-12-24T10:05:44.310Z,978
2022-12-24T10:07:01.649Z,978
2022-12-24T10:08:19.106Z,978
2022-12-24T10:09:34.580Z,978
2022-12-24T10:10:44.469Z,978
2022-12-24T10:11:54.349Z,979
2022-12-24T10:13:09.685Z,979
2022-12-24T10:14:22.186Z,979
2022-12-24T10:15:40.263Z,979
2022-12-24T10:16:58.571Z,979
2022-12-24T10:18:10.813Z,979
2022-12-24T10:19:20.447Z,979
2022-12-24T10:20:27.335Z,979
2022-12-24T10:21:34.473Z,979
2022-12-24T10:22:50.048Z,979
2022-12-24T10:23:57.793Z,979
2022-12-24T10:25:09.722Z,979
2022-12-24T10:26:24.695Z,979
2022-12-24T10:27:34.633Z,979
2022-12-24T10:28:43.714Z,979
2022-12-24T10:29:52.085Z,979
2022-12-24T10:31:07.134Z,979
2022-12-24T10:32:13.961Z,979
2022-12-24T10:33:29.906Z,979
2022-12-24T10:34:37.174Z,979
2022-12-24T10:35:46.913Z,979
2022-12-24T10:36:54.969Z,979
2022-12-24T10:38:02.259Z,979
2022-12-24T10:39:10.601Z,979
2022-12-24T10:40:20.705Z,979
2022-12-24T10:41:35.918Z,979
2022-12-24T10:42:48.287Z,979
2022-12-24T10:43:50.326Z,979
2022-12-24T10:45:03.360Z,979
2022-12-24T10:46:10.585Z,979
2022-12-24T10:47:17.904Z,979
2022-12-24T10:48:25.212Z,979
2022-12-24T10:49:32.259Z,979
2022-12-24T10:50:47.497Z,979
2022-12-24T10:51:59.804Z,979
2022-12-24T10:53:07.095Z,979
2022-12-24T10:54:26.431Z,979
2022-12-24T10:55:48.618Z,979
2022-12-24T10:56:55.795Z,979
2022-12-24T10:58:02.920Z,979
2022-12-24T10:59:10.108Z,979
2022-12-24T11:00:28.439Z,979
2022-12-24T11:01:38.684Z,979
2022-12-24T11:02:45.801Z,979
2022-12-24T11:03:52.927Z,979
2022-12-24T11:05:05.256Z,979
2022-12-24T11:06:17.456Z,979
2022-12-24T11:07:24.783Z,979
2022-12-24T11:08:31.879Z,979
2022-12-24T11:09:39.986Z,979
2022-12-24T11:10:46.781Z,979
2022-12-24T11:12:40.307Z,979
2022-12-24T11:13:47.262Z,979
2022-12-24T11:14:54.824Z,979
2022-12-24T11:16:07.394Z,979
2022-12-24T11:17:19.589Z,979
2022-12-24T11:20:00.452Z,979
2022-12-24T11:21:08.726Z,979
2022-12-24T11:22:15.584Z,979
2022-12-24T11:23:22.686Z,979
2022-12-24T11:24:29.568Z,979
2022-12-24T11:25:39.277Z,979
2022-12-24T11:26:46.367Z,979
2022-12-24T11:27:54.028Z,979
2022-12-24T11:29:01.379Z,979
2022-12-24T11:30:11.843Z,979
2022-12-24T11:31:19.811Z,979
2022-12-24T11:32:26.559Z,979
2022-12-24T11:33:33.666Z,979
2022-12-24T11:34:48.546Z,979
2022-12-24T11:35:58.791Z,980
2022-12-24T11:37:14.039Z,979
2022-12-24T11:38:24.341Z,980
2022-12-24T11:39:31.218Z,980
2022-12-24T11:40:38.538Z,980
2022-12-24T11:41:45.591Z,980
2022-12-24T11:42:52.661Z,980
2022-12-24T11:43:59.921Z,980
2022-12-24T11:45:09.589Z,980
2022-12-24T11:50:18.003Z,980
2022-12-24T11:51:26.700Z,980
2022-12-24T11:52:33.929Z,980
2022-12-24T11:53:42.110Z,980
2022-12-24T11:54:59.479Z,980
2022-12-24T11:56:17.658Z,980
2022-12-24T11:57:29.778Z,980
2022-12-24T11:58:37.204Z,980
2022-12-24T11:59:47.357Z,980
2022-12-24T12:00:54.474Z,980
2022-12-24T12:02:11.807Z,980
2022-12-24T12:03:26.857Z,980
2022-12-24T12:04:35.066Z,980
2022-12-24T12:05:43.086Z,980
2022-12-24T12:06:50.157Z,980
2022-12-24T12:07:57.279Z,980
2022-12-24T12:09:12.548Z,980
2022-12-24T12:10:30.131Z,980
2022-12-24T12:11:37.148Z,980
2022-12-24T12:12:44.409Z,980
2022-12-24T12:13:51.501Z,980
2022-12-24T12:14:58.719Z,980
2022-12-24T12:16:06.036Z,980
2022-12-24T12:17:19.025Z,980
2022-12-24T12:18:32.036Z,980
2022-12-24T12:19:39.551Z,980
2022-12-24T12:20:50.763Z,980
2022-12-24T12:21:57.767Z,980
2022-12-24T12:23:05.026Z,980
2022-12-24T12:24:25.512Z,980
2022-12-24T12:25:29.070Z,980
2022-12-24T12:26:41.442Z,980
2022-12-24T12:27:48.439Z,980
2022-12-24T12:28:55.725Z,980
2022-12-24T12:30:08.036Z,980
2022-12-24T12:31:18.550Z,980
2022-12-24T12:40:09.753Z,980
2022-12-24T12:41:17.174Z,981
2022-12-24T12:42:34.671Z,981
2022-12-24T12:43:41.794Z,981
2022-12-24T12:45:00.264Z,981
2022-12-24T12:54:00.846Z,981
2022-12-24T12:55:24.030Z,981
2022-12-24T12:56:30.677Z,981
2022-12-24T12:57:37.910Z,981
2022-12-24T12:58:45.119Z,981
2022-12-24T13:00:00.241Z,981
2022-12-24T13:01:07.623Z,981
2022-12-24T13:02:24.977Z,981
2022-12-24T13:03:38.434Z,981
2022-12-24T14:10:50.383Z,981
2022-12-24T14:12:00.243Z,982
2022-12-24T14:13:07.437Z,982
2022-12-24T14:14:24.867Z,982
2022-12-24T14:15:37.511Z,982
2022-12-24T14:20:22.106Z,982
2022-12-24T14:21:29.282Z,982
2022-12-24T14:22:36.369Z,982
2022-12-24T14:23:43.544Z,982
2022-12-24T14:24:55.859Z,982
2022-12-24T14:26:05.553Z,982
2022-12-24T14:27:13.720Z,982
2022-12-24T14:28:26.858Z,982
2022-12-24T14:29:33.961Z,982
2022-12-24T14:38:40.355Z,982
2022-12-24T14:39:47.352Z,983
2022-12-24T14:40:54.534Z,983
2022-12-24T14:42:08.511Z,983
2022-12-24T14:43:26.162Z,983
2022-12-24T14:54:59.081Z,983
2022-12-24T14:56:06.248Z,983
2022-12-24T14:57:13.365Z,983
2022-12-24T14:58:28.680Z,983
2022-12-24T14:59:41.175Z,983
2022-12-24T15:14:40.926Z,983
2022-12-24T15:15:52.155Z,983
2022-12-24T15:16:55.254Z,983
2022-12-24T15:18:07.498Z,983
2022-12-24T15:20:14.095Z,983
2022-12-24T15:21:21.333Z,983
2022-12-24T15:22:34.464Z,983
2022-12-24T15:23:41.444Z,983
2022-12-24T15:24:48.643Z,983
2022-12-24T15:29:03.481Z,983
2022-12-24T15:30:08.113Z,983
2022-12-24T15:31:18.905Z,983
2022-12-24T15:32:25.602Z,983
2022-12-24T15:37:23.569Z,983
2022-12-24T15:38:30.408Z,983
2022-12-24T15:39:43.755Z,983
2022-12-24T15:40:59.106Z,983
2022-12-24T15:42:06.284Z,983
2022-12-24T15:46:12.880Z,984
2022-12-24T15:47:24.833Z,984
2022-12-24T15:48:31.748Z,984
2022-12-24T15:49:38.973Z,984
2022-12-24T16:01:19.604Z,984
2022-12-24T16:02:29.752Z,984
2022-12-24T16:03:41.715Z,984
2022-12-24T16:04:53.889Z,984
2022-12-24T16:06:01.142Z,984
2022-12-24T16:07:21.709Z,984
2022-12-24T16:08:28.931Z,984
2022-12-24T16:09:36.397Z,984
2022-12-24T16:10:46.646Z,984
2022-12-24T16:12:04.330Z,984
2022-12-24T16:13:16.519Z,984
2022-12-24T16:14:23.743Z,984
2022-12-24T16:15:31.221Z,984
2022-12-24T16:16:38.332Z,984
2022-12-24T16:17:45.477Z,984
2022-12-24T16:18:52.631Z,984
2022-12-24T16:19:59.776Z,984
2022-12-24T16:21:06.848Z,984
2022-12-24T16:22:13.655Z,984
2022-12-24T16:23:25.864Z,984
2022-12-24T16:24:37.984Z,984
2022-12-24T16:25:45.037Z,984
2022-12-24T16:26:52.232Z,984
2022-12-24T16:28:00.739Z,984
2022-12-24T16:29:06.547Z,984
2022-12-24T16:30:13.742Z,984
2022-12-24T16:31:20.991Z,984
2022-12-24T16:32:33.406Z,984
2022-12-24T16:33:40.534Z,984
2022-12-24T16:34:47.732Z,984
2022-12-24T16:35:55.687Z,984
2022-12-24T16:37:03.604Z,984
2022-12-24T16:38:10.761Z,984
2022-12-24T16:39:17.894Z,984
2022-12-24T16:40:28.276Z,984
2022-12-24T16:41:34.413Z,984
2022-12-24T16:43:19.287Z,984
2022-12-24T16:44:31.453Z,984
2022-12-24T16:45:38.608Z,984
2022-12-24T16:46:45.996Z,984
2022-12-24T16:47:53.021Z,984
2022-12-24T16:49:00.065Z,984
2022-12-24T16:50:07.280Z,984
2022-12-24T16:51:14.312Z,984
2022-12-24T16:52:21.515Z,984
2022-12-24T16:58:26.471Z,984
2022-12-24T16:59:33.577Z,984
2022-12-24T17:00:40.921Z,984
2022-12-24T17:01:48.000Z,984
2022-12-24T17:02:55.273Z,984
2022-12-24T17:25:06.139Z,985
2022-12-24T17:26:15.206Z,985
2022-12-24T17:27:20.488Z,985
2022-12-24T17:28:27.559Z,985
2022-12-24T17:29:34.487Z,985
2022-12-24T17:30:41.726Z,985
2022-12-24T17:31:48.833Z,985
2022-12-24T17:32:56.194Z,985
2022-12-24T17:34:03.200Z,985
2022-12-24T17:39:33.895Z,985
2022-12-24T17:40:40.809Z,985
2022-12-24T17:41:47.949Z,985
2022-12-24T17:42:55.306Z,985
2022-12-24T17:44:02.323Z,985
2022-12-24T17:51:45.783Z,985
2022-12-24T17:52:50.841Z,985
2022-12-24T17:53:57.783Z,985
2022-12-24T17:55:05.004Z,985
2022-12-24T17:56:35.912Z,985
2022-12-24T17:57:43.185Z,985
2022-12-24T17:58:50.124Z,985
2022-12-24T17:59:57.247Z,985
2022-12-24T18:01:04.603Z,985
2022-12-24T18:02:54.458Z,985
2022-12-24T18:04:01.567Z,985
2022-12-24T18:05:08.633Z,985
2022-12-24T18:06:15.779Z,985
2022-12-24T18:07:22.928Z,985
2022-12-24T18:08:31.650Z,985
2022-12-24T18:09:38.533Z,985
2022-12-24T18:10:45.663Z,985
2022-12-24T18:11:53.031Z,985
2022-12-24T18:12:59.993Z,985
2022-12-24T18:14:17.155Z,985
2022-12-24T18:15:24.062Z,985
2022-12-24T18:16:31.520Z,985
2022-12-24T18:17:38.674Z,985
2022-12-24T18:18:45.725Z,985
2022-12-24T18:20:46.203Z,985
2022-12-24T18:21:47.870Z,985
2022-12-24T18:22:55.041Z,985
2022-12-24T18:24:02.188Z,985
2022-12-24T18:25:09.325Z,985
2022-12-24T18:26:23.356Z,985
2022-12-24T18:27:30.376Z,985
2022-12-24T18:28:37.160Z,985
2022-12-24T18:29:44.538Z,985
2022-12-24T18:30:51.487Z,985
2022-12-24T18:32:00.722Z,985
2022-12-24T18:33:07.890Z,985
2022-12-24T18:34:15.057Z,985
2022-12-24T18:35:22.195Z,985
2022-12-24T18:36:36.411Z,985
2022-12-24T18:37:43.343Z,985
2022-12-24T18:38:50.570Z,985
2022-12-24T18:39:57.675Z,985
2022-12-24T18:41:05.140Z,985
2022-12-24T18:42:12.014Z,985
2022-12-24T18:43:19.220Z,985
2022-12-24T18:44:26.384Z,985
2022-12-24T18:45:33.239Z,985
2022-12-24T18:47:04.720Z,985
2022-12-24T18:48:11.629Z,986